sensor_id;sensor_type;location;lat;lon;timestamp;temperature;humidity
7163;DHT22;3623;47.098;15.446;2023-03-31T00:01:40;8.10;99.90
7163;DHT22;3623;47.098;15.446;2023-03-31T00:04:08;8.20;99.90
7163;DHT22;3623;47.098;15.446;2023-03-31T00:06:39;8.10;99.90
7163;DHT22;3623;47.098;15.446;2023-03-31T00:09:09;8.10;99.90
7163;DHT22;3623;47.098;15.446;2023-03-31T00:11:38;8.00;99.90
7163;DHT22;3623;47.098;15.446;2023-03-31T00:14:06;8.00;99.90
7163;DHT22;3623;47.098;15.446;2023-03-31T00:16:33;7.90;99.90
7163;DHT22;3623;47.098;15.446;2023-03-31T00:19:02;7.80;99.90
7163;DHT22;3623;47.098;15.446;2023-03-31T00:21:29;7.70;99.90
7163;DHT22;3623;47.098;15.446;2023-03-31T00:24:00;7.80;99.90
7163;DHT22;3623;47.098;15.446;2023-03-31T00:26:28;7.70;99.90
7163;DHT22;3623;47.098;15.446;2023-03-31T00:28:56;7.80;99.90
7163;DHT22;3623;47.098;15.446;2023-03-31T00:31:24;7.80;99.90
7163;DHT22;3623;47.098;15.446;2023-03-31T00:33:52;7.70;99.90
7163;DHT22;3623;47.098;15.446;2023-03-31T00:36:21;7.80;99.90
7163;DHT22;3623;47.098;15.446;2023-03-31T00:38:52;7.80;99.90
7163;DHT22;3623;47.098;15.446;2023-03-31T00:41:19;7.90;99.90
7163;DHT22;3623;47.098;15.446;2023-03-31T00:44:05;7.20;99.90
7163;DHT22;3623;47.098;15.446;2023-03-31T00:46:33;8.10;99.90
7163;DHT22;3623;47.098;15.446;2023-03-31T00:49:02;8.20;99.90
7163;DHT22;3623;47.098;15.446;2023-03-31T00:51:32;8.30;99.90
7163;DHT22;3623;47.098;15.446;2023-03-31T00:54:02;8.30;99.90
7163;DHT22;3623;47.098;15.446;2023-03-31T00:56:33;8.40;99.90
7163;DHT22;3623;47.098;15.446;2023-03-31T00:59:04;8.50;99.90
7163;DHT22;3623;47.098;15.446;2023-03-31T01:01:33;8.50;99.90
7163;DHT22;3623;47.098;15.446;2023-03-31T01:04:02;8.60;99.90
7163;DHT22;3623;47.098;15.446;2023-03-31T01:06:31;8.50;99.90
7163;DHT22;3623;47.098;15.446;2023-03-31T01:08:59;8.70;99.90
7163;DHT22;3623;47.098;15.446;2023-03-31T01:11:33;8.70;99.90
7163;DHT22;3623;47.098;15.446;2023-03-31T01:14:00;8.80;99.90
7163;DHT22;3623;47.098;15.446;2023-03-31T01:16:28;8.70;99.90
7163;DHT22;3623;47.098;15.446;2023-03-31T01:18:56;8.80;99.90
7163;DHT22;3623;47.098;15.446;2023-03-31T01:21:42;8.80;99.90
7163;DHT22;3623;47.098;15.446;2023-03-31T01:25:03;8.80;99.90
7163;DHT22;3623;47.098;15.446;2023-03-31T01:27:59;9.00;99.90
7163;DHT22;3623;47.098;15.446;2023-03-31T01:37:13;8.90;99.90
7163;DHT22;3623;47.098;15.446;2023-03-31T01:40:08;8.60;99.90
7163;DHT22;3623;47.098;15.446;2023-03-31T01:42:41;8.40;99.90
7163;DHT22;3623;47.098;15.446;2023-03-31T01:45:18;8.30;99.90
7163;DHT22;3623;47.098;15.446;2023-03-31T01:47:52;8.30;99.90
7163;DHT22;3623;47.098;15.446;2023-03-31T01:50:26;8.20;99.90
7163;DHT22;3623;47.098;15.446;2023-03-31T01:52:58;8.10;99.90
7163;DHT22;3623;47.098;15.446;2023-03-31T01:55:34;7.90;99.90
7163;DHT22;3623;47.098;15.446;2023-03-31T01:58:08;7.90;99.90
7163;DHT22;3623;47.098;15.446;2023-03-31T02:00:40;7.90;99.90
7163;DHT22;3623;47.098;15.446;2023-03-31T02:03:13;7.70;99.90
7163;DHT22;3623;47.098;15.446;2023-03-31T02:05:45;7.70;99.90
7163;DHT22;3623;47.098;15.446;2023-03-31T02:08:16;7.50;99.90
7163;DHT22;3623;47.098;15.446;2023-03-31T02:10:47;7.50;99.90
7163;DHT22;3623;47.098;15.446;2023-03-31T02:13:16;7.60;99.90
7163;DHT22;3623;47.098;15.446;2023-03-31T02:15:47;7.50;99.90
7163;DHT22;3623;47.098;15.446;2023-03-31T02:18:21;7.50;99.90
7163;DHT22;3623;47.098;15.446;2023-03-31T02:20:53;7.50;99.90
7163;DHT22;3623;47.098;15.446;2023-03-31T02:23:24;7.50;99.90
7163;DHT22;3623;47.098;15.446;2023-03-31T02:25:59;7.50;99.90
7163;DHT22;3623;47.098;15.446;2023-03-31T02:28:28;7.50;99.90
7163;DHT22;3623;47.098;15.446;2023-03-31T02:31:08;7.50;99.90
7163;DHT22;3623;47.098;15.446;2023-03-31T02:33:40;7.40;99.90
7163;DHT22;3623;47.098;15.446;2023-03-31T02:36:07;7.40;99.90
7163;DHT22;3623;47.098;15.446;2023-03-31T02:38:40;7.20;99.90
7163;DHT22;3623;47.098;15.446;2023-03-31T02:41:10;7.20;99.90
7163;DHT22;3623;47.098;15.446;2023-03-31T02:43:38;7.20;99.90
7163;DHT22;3623;47.098;15.446;2023-03-31T02:46:05;7.20;99.90
7163;DHT22;3623;47.098;15.446;2023-03-31T02:48:35;7.20;99.90
7163;DHT22;3623;47.098;15.446;2023-03-31T02:51:23;7.20;99.90
7163;DHT22;3623;47.098;15.446;2023-03-31T02:54:11;7.10;99.90
7163;DHT22;3623;47.098;15.446;2023-03-31T02:56:58;7.10;99.90
7163;DHT22;3623;47.098;15.446;2023-03-31T02:59:37;7.10;99.90
7163;DHT22;3623;47.098;15.446;2023-03-31T03:02:13;7.10;99.90
7163;DHT22;3623;47.098;15.446;2023-03-31T03:05:12;7.00;99.90
7163;DHT22;3623;47.098;15.446;2023-03-31T03:07:50;7.20;99.90
7163;DHT22;3623;47.098;15.446;2023-03-31T03:10:27;7.00;99.90
7163;DHT22;3623;47.098;15.446;2023-03-31T03:13:05;6.90;99.90
7163;DHT22;3623;47.098;15.446;2023-03-31T03:15:34;6.90;99.90
7163;DHT22;3623;47.098;15.446;2023-03-31T03:18:04;6.90;99.90
7163;DHT22;3623;47.098;15.446;2023-03-31T03:20:32;7.00;99.90
7163;DHT22;3623;47.098;15.446;2023-03-31T03:23:00;6.80;99.90
7163;DHT22;3623;47.098;15.446;2023-03-31T03:25:27;6.70;99.90
7163;DHT22;3623;47.098;15.446;2023-03-31T03:27:57;6.70;99.90
7163;DHT22;3623;47.098;15.446;2023-03-31T03:30:24;6.60;99.90
7163;DHT22;3623;47.098;15.446;2023-03-31T03:32:51;6.70;99.90
7163;DHT22;3623;47.098;15.446;2023-03-31T03:35:19;6.60;99.90
7163;DHT22;3623;47.098;15.446;2023-03-31T03:37:46;6.60;99.90
7163;DHT22;3623;47.098;15.446;2023-03-31T03:40:13;6.40;99.90
7163;DHT22;3623;47.098;15.446;2023-03-31T03:42:40;6.00;99.90
7163;DHT22;3623;47.098;15.446;2023-03-31T03:45:09;6.60;99.90
7163;DHT22;3623;47.098;15.446;2023-03-31T03:47:36;6.50;99.90
7163;DHT22;3623;47.098;15.446;2023-03-31T03:50:04;6.50;99.90
7163;DHT22;3623;47.098;15.446;2023-03-31T03:52:31;6.50;99.90
7163;DHT22;3623;47.098;15.446;2023-03-31T03:54:58;6.60;99.90
7163;DHT22;3623;47.098;15.446;2023-03-31T03:57:26;6.40;99.90
7163;DHT22;3623;47.098;15.446;2023-03-31T03:59:53;6.40;99.90
7163;DHT22;3623;47.098;15.446;2023-03-31T04:02:21;6.50;99.90
7163;DHT22;3623;47.098;15.446;2023-03-31T04:04:49;6.40;99.90
7163;DHT22;3623;47.098;15.446;2023-03-31T04:07:17;6.20;99.90
7163;DHT22;3623;47.098;15.446;2023-03-31T04:09:44;6.40;99.90
7163;DHT22;3623;47.098;15.446;2023-03-31T04:12:11;6.40;99.90
7163;DHT22;3623;47.098;15.446;2023-03-31T04:14:38;6.30;99.90
7163;DHT22;3623;47.098;15.446;2023-03-31T04:17:05;6.40;99.90
7163;DHT22;3623;47.098;15.446;2023-03-31T04:19:36;6.30;99.90
7163;DHT22;3623;47.098;15.446;2023-03-31T04:22:06;6.30;99.90
7163;DHT22;3623;47.098;15.446;2023-03-31T04:24:36;6.30;99.90
7163;DHT22;3623;47.098;15.446;2023-03-31T04:27:04;6.40;99.90
7163;DHT22;3623;47.098;15.446;2023-03-31T04:29:32;6.30;99.90
7163;DHT22;3623;47.098;15.446;2023-03-31T04:32:01;6.40;99.90
7163;DHT22;3623;47.098;15.446;2023-03-31T04:34:28;6.30;99.90
7163;DHT22;3623;47.098;15.446;2023-03-31T04:37:02;6.20;99.90
7163;DHT22;3623;47.098;15.446;2023-03-31T04:39:29;6.00;99.90
7163;DHT22;3623;47.098;15.446;2023-03-31T04:41:57;6.20;99.90
7163;DHT22;3623;47.098;15.446;2023-03-31T04:44:24;6.10;99.90
7163;DHT22;3623;47.098;15.446;2023-03-31T04:46:52;6.20;99.90
7163;DHT22;3623;47.098;15.446;2023-03-31T04:49:19;6.20;99.90
7163;DHT22;3623;47.098;15.446;2023-03-31T04:51:46;6.20;99.90
7163;DHT22;3623;47.098;15.446;2023-03-31T04:54:15;6.30;99.90
7163;DHT22;3623;47.098;15.446;2023-03-31T04:56:42;6.30;99.90
7163;DHT22;3623;47.098;15.446;2023-03-31T04:59:09;6.40;99.90
7163;DHT22;3623;47.098;15.446;2023-03-31T05:01:36;6.70;99.90
7163;DHT22;3623;47.098;15.446;2023-03-31T05:04:03;6.50;99.90
7163;DHT22;3623;47.098;15.446;2023-03-31T05:06:30;6.30;99.90
7163;DHT22;3623;47.098;15.446;2023-03-31T05:08:57;6.50;99.90
7163;DHT22;3623;47.098;15.446;2023-03-31T05:11:26;6.40;99.90
7163;DHT22;3623;47.098;15.446;2023-03-31T05:13:53;6.40;99.90
7163;DHT22;3623;47.098;15.446;2023-03-31T05:16:20;6.40;99.90
7163;DHT22;3623;47.098;15.446;2023-03-31T05:18:47;6.20;99.90
7163;DHT22;3623;47.098;15.446;2023-03-31T05:21:16;6.10;99.90
7163;DHT22;3623;47.098;15.446;2023-03-31T05:23:43;6.10;99.90
7163;DHT22;3623;47.098;15.446;2023-03-31T05:26:11;6.00;99.90
7163;DHT22;3623;47.098;15.446;2023-03-31T05:28:40;5.90;99.90
7163;DHT22;3623;47.098;15.446;2023-03-31T05:31:08;5.90;99.90
7163;DHT22;3623;47.098;15.446;2023-03-31T05:33:36;5.90;99.90
7163;DHT22;3623;47.098;15.446;2023-03-31T05:36:07;5.90;99.90
7163;DHT22;3623;47.098;15.446;2023-03-31T05:38:34;5.90;99.90
7163;DHT22;3623;47.098;15.446;2023-03-31T05:41:01;6.00;99.90
7163;DHT22;3623;47.098;15.446;2023-03-31T05:43:29;6.00;99.90
7163;DHT22;3623;47.098;15.446;2023-03-31T05:45:57;6.00;99.90
7163;DHT22;3623;47.098;15.446;2023-03-31T05:48:24;6.10;99.90
7163;DHT22;3623;47.098;15.446;2023-03-31T05:50:54;5.90;99.90
7163;DHT22;3623;47.098;15.446;2023-03-31T05:53:21;6.20;99.90
7163;DHT22;3623;47.098;15.446;2023-03-31T05:55:48;6.30;99.90
7163;DHT22;3623;47.098;15.446;2023-03-31T05:58:15;6.20;99.90
7163;DHT22;3623;47.098;15.446;2023-03-31T06:00:42;6.50;99.90
7163;DHT22;3623;47.098;15.446;2023-03-31T06:03:11;6.40;99.90
7163;DHT22;3623;47.098;15.446;2023-03-31T06:05:38;6.50;99.90
7163;DHT22;3623;47.098;15.446;2023-03-31T06:08:06;6.30;99.90
7163;DHT22;3623;47.098;15.446;2023-03-31T06:10:33;6.50;99.90
7163;DHT22;3623;47.098;15.446;2023-03-31T06:13:00;6.50;99.90
7163;DHT22;3623;47.098;15.446;2023-03-31T06:15:27;6.40;99.90
7163;DHT22;3623;47.098;15.446;2023-03-31T06:17:55;6.60;99.90
7163;DHT22;3623;47.098;15.446;2023-03-31T06:20:23;6.50;99.90
7163;DHT22;3623;47.098;15.446;2023-03-31T06:22:51;6.40;99.90
7163;DHT22;3623;47.098;15.446;2023-03-31T06:25:18;6.40;99.90
7163;DHT22;3623;47.098;15.446;2023-03-31T06:27:45;6.70;99.90
7163;DHT22;3623;47.098;15.446;2023-03-31T06:30:12;6.50;99.90
7163;DHT22;3623;47.098;15.446;2023-03-31T06:32:39;7.50;99.90
7163;DHT22;3623;47.098;15.446;2023-03-31T06:35:07;6.60;99.90
7163;DHT22;3623;47.098;15.446;2023-03-31T06:37:36;6.50;99.90
7163;DHT22;3623;47.098;15.446;2023-03-31T06:40:03;6.70;99.90
7163;DHT22;3623;47.098;15.446;2023-03-31T06:42:30;6.70;99.90
7163;DHT22;3623;47.098;15.446;2023-03-31T06:44:57;6.80;99.90
7163;DHT22;3623;47.098;15.446;2023-03-31T06:47:24;7.90;99.90
7163;DHT22;3623;47.098;15.446;2023-03-31T06:49:51;6.90;99.90
7163;DHT22;3623;47.098;15.446;2023-03-31T06:52:18;6.50;99.90
7163;DHT22;3623;47.098;15.446;2023-03-31T06:54:46;7.40;99.90
7163;DHT22;3623;47.098;15.446;2023-03-31T06:57:13;7.60;99.90
7163;DHT22;3623;47.098;15.446;2023-03-31T06:59:41;7.80;99.90
7163;DHT22;3623;47.098;15.446;2023-03-31T07:02:09;7.90;99.90
7163;DHT22;3623;47.098;15.446;2023-03-31T07:04:36;7.90;99.90
7163;DHT22;3623;47.098;15.446;2023-03-31T07:07:03;7.90;99.90
7163;DHT22;3623;47.098;15.446;2023-03-31T07:09:30;8.30;99.90
7163;DHT22;3623;47.098;15.446;2023-03-31T07:11:58;8.50;99.90
7163;DHT22;3623;47.098;15.446;2023-03-31T07:14:26;8.70;99.90
7163;DHT22;3623;47.098;15.446;2023-03-31T07:16:53;8.80;99.90
7163;DHT22;3623;47.098;15.446;2023-03-31T07:19:20;9.30;99.90
7163;DHT22;3623;47.098;15.446;2023-03-31T07:21:47;9.50;99.90
7163;DHT22;3623;47.098;15.446;2023-03-31T07:24:14;9.90;99.90
7163;DHT22;3623;47.098;15.446;2023-03-31T07:26:41;10.10;99.90
7163;DHT22;3623;47.098;15.446;2023-03-31T07:29:10;10.60;99.90
7163;DHT22;3623;47.098;15.446;2023-03-31T07:31:37;10.70;99.90
7163;DHT22;3623;47.098;15.446;2023-03-31T07:34:04;10.70;99.90
7163;DHT22;3623;47.098;15.446;2023-03-31T07:36:31;11.10;99.90
7163;DHT22;3623;47.098;15.446;2023-03-31T07:38:58;11.10;99.90
7163;DHT22;3623;47.098;15.446;2023-03-31T07:41:25;11.20;99.90
7163;DHT22;3623;47.098;15.446;2023-03-31T07:43:52;11.40;99.90
7163;DHT22;3623;47.098;15.446;2023-03-31T07:46:23;11.30;99.90
7163;DHT22;3623;47.098;15.446;2023-03-31T07:48:51;11.30;99.90
7163;DHT22;3623;47.098;15.446;2023-03-31T07:51:20;11.60;99.90
7163;DHT22;3623;47.098;15.446;2023-03-31T07:53:48;12.00;99.90
7163;DHT22;3623;47.098;15.446;2023-03-31T07:56:17;12.30;99.90
7163;DHT22;3623;47.098;15.446;2023-03-31T07:58:45;12.80;99.90
7163;DHT22;3623;47.098;15.446;2023-03-31T08:01:13;12.60;99.90
7163;DHT22;3623;47.098;15.446;2023-03-31T08:03:44;12.60;99.90
7163;DHT22;3623;47.098;15.446;2023-03-31T08:06:16;12.70;99.90
7163;DHT22;3623;47.098;15.446;2023-03-31T08:08:44;12.60;99.90
7163;DHT22;3623;47.098;15.446;2023-03-31T08:11:11;12.40;99.90
7163;DHT22;3623;47.098;15.446;2023-03-31T08:13:38;12.00;99.90
7163;DHT22;3623;47.098;15.446;2023-03-31T08:16:05;12.10;99.90
7163;DHT22;3623;47.098;15.446;2023-03-31T08:18:32;12.10;99.90
7163;DHT22;3623;47.098;15.446;2023-03-31T08:21:01;12.00;99.90
7163;DHT22;3623;47.098;15.446;2023-03-31T08:23:28;11.90;99.90
7163;DHT22;3623;47.098;15.446;2023-03-31T08:26:09;12.10;99.90
7163;DHT22;3623;47.098;15.446;2023-03-31T08:28:36;12.50;99.90
7163;DHT22;3623;47.098;15.446;2023-03-31T08:31:04;12.60;99.90
7163;DHT22;3623;47.098;15.446;2023-03-31T08:33:31;12.70;99.90
7163;DHT22;3623;47.098;15.446;2023-03-31T08:36:02;13.00;99.90
7163;DHT22;3623;47.098;15.446;2023-03-31T08:38:30;12.90;99.90
7163;DHT22;3623;47.098;15.446;2023-03-31T08:41:01;13.10;99.90
7163;DHT22;3623;47.098;15.446;2023-03-31T08:43:31;13.40;99.90
7163;DHT22;3623;47.098;15.446;2023-03-31T08:46:01;13.80;99.90
7163;DHT22;3623;47.098;15.446;2023-03-31T08:48:33;14.20;99.90
7163;DHT22;3623;47.098;15.446;2023-03-31T08:51:08;14.30;99.90
7163;DHT22;3623;47.098;15.446;2023-03-31T08:53:42;14.20;99.90
7163;DHT22;3623;47.098;15.446;2023-03-31T08:56:15;14.30;99.90
7163;DHT22;3623;47.098;15.446;2023-03-31T08:58:44;14.20;99.90
7163;DHT22;3623;47.098;15.446;2023-03-31T09:01:20;14.40;99.90
7163;DHT22;3623;47.098;15.446;2023-03-31T09:04:12;14.10;99.90
7163;DHT22;3623;47.098;15.446;2023-03-31T09:06:48;14.30;99.90
7163;DHT22;3623;47.098;15.446;2023-03-31T09:09:24;14.00;99.90
7163;DHT22;3623;47.098;15.446;2023-03-31T09:11:59;14.10;99.90
7163;DHT22;3623;47.098;15.446;2023-03-31T09:14:36;14.20;99.90
7163;DHT22;3623;47.098;15.446;2023-03-31T09:17:12;14.10;99.90
7163;DHT22;3623;47.098;15.446;2023-03-31T09:19:46;14.10;99.90
7163;DHT22;3623;47.098;15.446;2023-03-31T09:22:17;14.10;99.90
7163;DHT22;3623;47.098;15.446;2023-03-31T09:24:53;14.40;99.90
7163;DHT22;3623;47.098;15.446;2023-03-31T09:27:23;14.40;99.90
7163;DHT22;3623;47.098;15.446;2023-03-31T09:29:54;14.60;99.90
7163;DHT22;3623;47.098;15.446;2023-03-31T09:32:27;14.90;99.90
7163;DHT22;3623;47.098;15.446;2023-03-31T09:34:56;15.20;99.90
7163;DHT22;3623;47.098;15.446;2023-03-31T09:37:30;15.60;99.90
7163;DHT22;3623;47.098;15.446;2023-03-31T09:39:59;15.50;99.90
7163;DHT22;3623;47.098;15.446;2023-03-31T09:42:32;15.60;99.90
7163;DHT22;3623;47.098;15.446;2023-03-31T09:45:00;16.10;99.90
7163;DHT22;3623;47.098;15.446;2023-03-31T09:47:31;15.90;99.90
7163;DHT22;3623;47.098;15.446;2023-03-31T09:49:59;16.10;99.90
7163;DHT22;3623;47.098;15.446;2023-03-31T09:52:31;16.60;99.90
7163;DHT22;3623;47.098;15.446;2023-03-31T09:54:59;16.50;99.90
7163;DHT22;3623;47.098;15.446;2023-03-31T09:57:28;16.70;99.90
7163;DHT22;3623;47.098;15.446;2023-03-31T10:00:02;17.00;99.90
7163;DHT22;3623;47.098;15.446;2023-03-31T10:02:39;16.90;99.90
7163;DHT22;3623;47.098;15.446;2023-03-31T10:05:21;16.70;99.90
7163;DHT22;3623;47.098;15.446;2023-03-31T10:07:52;16.60;99.90
7163;DHT22;3623;47.098;15.446;2023-03-31T10:10:26;16.70;99.90
7163;DHT22;3623;47.098;15.446;2023-03-31T10:12:54;16.60;99.90
7163;DHT22;3623;47.098;15.446;2023-03-31T10:15:25;16.10;99.90
7163;DHT22;3623;47.098;15.446;2023-03-31T10:17:57;16.10;99.90
7163;DHT22;3623;47.098;15.446;2023-03-31T10:20:31;16.00;99.90
7163;DHT22;3623;47.098;15.446;2023-03-31T10:23:11;16.00;99.90
7163;DHT22;3623;47.098;15.446;2023-03-31T10:25:41;15.60;99.90
7163;DHT22;3623;47.098;15.446;2023-03-31T10:28:10;15.30;99.90
7163;DHT22;3623;47.098;15.446;2023-03-31T10:30:38;15.20;99.90
7163;DHT22;3623;47.098;15.446;2023-03-31T10:33:11;15.20;99.90
7163;DHT22;3623;47.098;15.446;2023-03-31T10:35:40;14.80;99.90
7163;DHT22;3623;47.098;15.446;2023-03-31T10:38:13;14.60;99.90
7163;DHT22;3623;47.098;15.446;2023-03-31T10:40:49;14.50;99.90
7163;DHT22;3623;47.098;15.446;2023-03-31T10:43:18;14.50;99.90
7163;DHT22;3623;47.098;15.446;2023-03-31T10:45:47;14.50;99.90
7163;DHT22;3623;47.098;15.446;2023-03-31T10:48:23;14.40;99.90
7163;DHT22;3623;47.098;15.446;2023-03-31T10:50:51;14.50;99.90
7163;DHT22;3623;47.098;15.446;2023-03-31T10:53:19;14.50;99.90
7163;DHT22;3623;47.098;15.446;2023-03-31T10:55:58;14.40;99.90
7163;DHT22;3623;47.098;15.446;2023-03-31T10:58:37;14.50;99.90
7163;DHT22;3623;47.098;15.446;2023-03-31T11:01:13;14.60;99.90
7163;DHT22;3623;47.098;15.446;2023-03-31T11:06:56;14.60;99.90
7163;DHT22;3623;47.098;15.446;2023-03-31T11:09:43;14.60;99.90
7163;DHT22;3623;47.098;15.446;2023-03-31T11:12:20;14.90;99.90
7163;DHT22;3623;47.098;15.446;2023-03-31T11:15:00;15.10;99.90
7163;DHT22;3623;47.098;15.446;2023-03-31T11:17:38;15.50;99.90
7163;DHT22;3623;47.098;15.446;2023-03-31T11:20:14;16.10;99.90
7163;DHT22;3623;47.098;15.446;2023-03-31T11:22:50;16.60;99.90
7163;DHT22;3623;47.098;15.446;2023-03-31T11:25:26;17.40;99.90
7163;DHT22;3623;47.098;15.446;2023-03-31T11:28:20;18.50;99.90
7163;DHT22;3623;47.098;15.446;2023-03-31T11:30:57;19.00;99.90
7163;DHT22;3623;47.098;15.446;2023-03-31T11:33:53;19.70;99.90
7163;DHT22;3623;47.098;15.446;2023-03-31T11:36:38;18.70;99.90
7163;DHT22;3623;47.098;15.446;2023-03-31T11:39:22;18.60;99.90
7163;DHT22;3623;47.098;15.446;2023-03-31T11:41:54;18.70;99.90
7163;DHT22;3623;47.098;15.446;2023-03-31T11:44:23;18.80;99.90
7163;DHT22;3623;47.098;15.446;2023-03-31T11:46:55;19.20;99.90
7163;DHT22;3623;47.098;15.446;2023-03-31T11:49:26;18.90;99.90
7163;DHT22;3623;47.098;15.446;2023-03-31T11:51:55;19.50;99.90
7163;DHT22;3623;47.098;15.446;2023-03-31T11:54:28;19.10;99.90
7163;DHT22;3623;47.098;15.446;2023-03-31T11:56:59;20.00;99.90
7163;DHT22;3623;47.098;15.446;2023-03-31T11:59:29;19.90;99.90
7163;DHT22;3623;47.098;15.446;2023-03-31T12:02:03;20.60;99.90
7163;DHT22;3623;47.098;15.446;2023-03-31T12:04:37;21.30;99.90
7163;DHT22;3623;47.098;15.446;2023-03-31T12:07:19;21.70;99.90
7163;DHT22;3623;47.098;15.446;2023-03-31T12:09:53;22.00;99.90
7163;DHT22;3623;47.098;15.446;2023-03-31T12:12:26;22.10;99.90
7163;DHT22;3623;47.098;15.446;2023-03-31T12:15:02;22.80;99.90
7163;DHT22;3623;47.098;15.446;2023-03-31T12:17:31;23.00;99.90
7163;DHT22;3623;47.098;15.446;2023-03-31T12:20:03;23.80;99.90
7163;DHT22;3623;47.098;15.446;2023-03-31T12:22:38;24.10;99.90
7163;DHT22;3623;47.098;15.446;2023-03-31T12:25:11;24.10;99.90
7163;DHT22;3623;47.098;15.446;2023-03-31T12:27:42;23.50;99.90
7163;DHT22;3623;47.098;15.446;2023-03-31T12:30:11;23.10;99.90
7163;DHT22;3623;47.098;15.446;2023-03-31T12:32:42;23.40;99.90
7163;DHT22;3623;47.098;15.446;2023-03-31T12:35:18;24.30;99.90
7163;DHT22;3623;47.098;15.446;2023-03-31T12:38:11;22.70;99.90
7163;DHT22;3623;47.098;15.446;2023-03-31T12:40:48;21.20;99.90
7163;DHT22;3623;47.098;15.446;2023-03-31T12:46:54;19.30;99.90
7163;DHT22;3623;47.098;15.446;2023-03-31T12:49:35;18.70;99.90
7163;DHT22;3623;47.098;15.446;2023-03-31T12:52:07;18.50;99.90
7163;DHT22;3623;47.098;15.446;2023-03-31T12:55:17;18.50;99.90
7163;DHT22;3623;47.098;15.446;2023-03-31T12:57:47;19.10;99.90
7163;DHT22;3623;47.098;15.446;2023-03-31T13:00:23;19.60;99.90
7163;DHT22;3623;47.098;15.446;2023-03-31T13:03:34;20.00;99.90
7163;DHT22;3623;47.098;15.446;2023-03-31T13:06:03;21.60;99.90
7163;DHT22;3623;47.098;15.446;2023-03-31T13:08:52;21.40;99.90
7163;DHT22;3623;47.098;15.446;2023-03-31T13:11:21;21.00;99.90
7163;DHT22;3623;47.098;15.446;2023-03-31T13:14:02;20.30;99.90
7163;DHT22;3623;47.098;15.446;2023-03-31T13:16:30;20.00;99.90
7163;DHT22;3623;47.098;15.446;2023-03-31T13:18:59;19.50;99.90
7163;DHT22;3623;47.098;15.446;2023-03-31T13:21:26;19.70;99.90
7163;DHT22;3623;47.098;15.446;2023-03-31T13:23:59;19.80;99.90
7163;DHT22;3623;47.098;15.446;2023-03-31T13:26:38;19.70;99.90
7163;DHT22;3623;47.098;15.446;2023-03-31T13:29:10;19.20;99.90
7163;DHT22;3623;47.098;15.446;2023-03-31T13:32:07;18.60;99.90
7163;DHT22;3623;47.098;15.446;2023-03-31T13:34:39;18.30;99.90
7163;DHT22;3623;47.098;15.446;2023-03-31T13:37:15;18.10;99.90
7163;DHT22;3623;47.098;15.446;2023-03-31T13:43:03;18.20;99.90
7163;DHT22;3623;47.098;15.446;2023-03-31T13:45:47;17.90;99.90
7163;DHT22;3623;47.098;15.446;2023-03-31T13:48:35;17.40;99.90
7163;DHT22;3623;47.098;15.446;2023-03-31T13:51:22;17.20;99.90
7163;DHT22;3623;47.098;15.446;2023-03-31T13:54:11;17.10;99.90
7163;DHT22;3623;47.098;15.446;2023-03-31T14:00:06;16.60;99.90
7163;DHT22;3623;47.098;15.446;2023-03-31T14:03:04;16.50;99.90
7163;DHT22;3623;47.098;15.446;2023-03-31T14:05:34;16.40;99.90
7163;DHT22;3623;47.098;15.446;2023-03-31T14:08:09;16.30;99.90
7163;DHT22;3623;47.098;15.446;2023-03-31T14:10:40;16.20;99.90
7163;DHT22;3623;47.098;15.446;2023-03-31T14:13:10;16.30;99.90
7163;DHT22;3623;47.098;15.446;2023-03-31T14:15:40;16.20;99.90
7163;DHT22;3623;47.098;15.446;2023-03-31T14:18:11;16.10;99.90
7163;DHT22;3623;47.098;15.446;2023-03-31T14:20:48;16.20;99.90
7163;DHT22;3623;47.098;15.446;2023-03-31T14:23:32;16.20;99.90
7163;DHT22;3623;47.098;15.446;2023-03-31T14:26:05;16.30;99.90
7163;DHT22;3623;47.098;15.446;2023-03-31T14:28:44;16.20;99.90
7163;DHT22;3623;47.098;15.446;2023-03-31T14:31:18;16.10;99.90
7163;DHT22;3623;47.098;15.446;2023-03-31T14:34:11;16.00;99.90
7163;DHT22;3623;47.098;15.446;2023-03-31T14:36:46;16.00;99.90
7163;DHT22;3623;47.098;15.446;2023-03-31T14:39:20;16.00;99.90
7163;DHT22;3623;47.098;15.446;2023-03-31T14:41:51;16.00;99.90
7163;DHT22;3623;47.098;15.446;2023-03-31T14:44:19;16.20;99.90
7163;DHT22;3623;47.098;15.446;2023-03-31T14:46:46;16.50;99.90
7163;DHT22;3623;47.098;15.446;2023-03-31T14:49:19;16.70;99.90
7163;DHT22;3623;47.098;15.446;2023-03-31T14:51:48;16.60;99.90
7163;DHT22;3623;47.098;15.446;2023-03-31T14:54:19;16.60;99.90
7163;DHT22;3623;47.098;15.446;2023-03-31T14:56:49;16.30;99.90
7163;DHT22;3623;47.098;15.446;2023-03-31T14:59:20;16.40;99.90
7163;DHT22;3623;47.098;15.446;2023-03-31T15:01:49;16.50;99.90
7163;DHT22;3623;47.098;15.446;2023-03-31T15:04:19;16.40;99.90
7163;DHT22;3623;47.098;15.446;2023-03-31T15:06:48;16.50;99.90
7163;DHT22;3623;47.098;15.446;2023-03-31T15:09:20;16.50;99.90
7163;DHT22;3623;47.098;15.446;2023-03-31T15:11:54;16.50;99.90
7163;DHT22;3623;47.098;15.446;2023-03-31T15:14:22;16.40;99.90
7163;DHT22;3623;47.098;15.446;2023-03-31T15:16:50;16.20;99.90
7163;DHT22;3623;47.098;15.446;2023-03-31T15:19:19;16.20;99.90
7163;DHT22;3623;47.098;15.446;2023-03-31T15:21:54;16.10;99.90
7163;DHT22;3623;47.098;15.446;2023-03-31T15:24:23;15.90;99.90
7163;DHT22;3623;47.098;15.446;2023-03-31T15:26:55;15.90;99.90
7163;DHT22;3623;47.098;15.446;2023-03-31T15:29:25;15.80;99.90
7163;DHT22;3623;47.098;15.446;2023-03-31T15:31:55;15.70;99.90
7163;DHT22;3623;47.098;15.446;2023-03-31T15:34:26;15.50;99.90
7163;DHT22;3623;47.098;15.446;2023-03-31T15:36:56;15.40;99.90
7163;DHT22;3623;47.098;15.446;2023-03-31T15:39:26;15.30;99.90
7163;DHT22;3623;47.098;15.446;2023-03-31T15:41:54;15.30;99.90
7163;DHT22;3623;47.098;15.446;2023-03-31T15:44:35;15.10;99.90
7163;DHT22;3623;47.098;15.446;2023-03-31T15:47:07;15.10;99.90
7163;DHT22;3623;47.098;15.446;2023-03-31T15:49:34;15.10;99.90
7163;DHT22;3623;47.098;15.446;2023-03-31T15:52:01;15.00;99.90
7163;DHT22;3623;47.098;15.446;2023-03-31T15:54:32;15.00;99.90
7163;DHT22;3623;47.098;15.446;2023-03-31T15:57:01;14.90;99.90
7163;DHT22;3623;47.098;15.446;2023-03-31T15:59:29;14.80;99.90
7163;DHT22;3623;47.098;15.446;2023-03-31T16:01:57;14.80;99.90
7163;DHT22;3623;47.098;15.446;2023-03-31T16:04:30;14.70;99.90
7163;DHT22;3623;47.098;15.446;2023-03-31T16:07:01;14.60;99.90
7163;DHT22;3623;47.098;15.446;2023-03-31T16:09:41;14.60;99.90
7163;DHT22;3623;47.098;15.446;2023-03-31T16:12:13;14.50;99.90
7163;DHT22;3623;47.098;15.446;2023-03-31T16:14:45;14.60;99.90
7163;DHT22;3623;47.098;15.446;2023-03-31T16:17:20;14.40;99.90
7163;DHT22;3623;47.098;15.446;2023-03-31T16:19:52;14.30;99.90
7163;DHT22;3623;47.098;15.446;2023-03-31T16:22:22;14.30;99.90
7163;DHT22;3623;47.098;15.446;2023-03-31T16:24:51;14.30;99.90
7163;DHT22;3623;47.098;15.446;2023-03-31T16:27:19;14.20;99.90
7163;DHT22;3623;47.098;15.446;2023-03-31T16:29:46;14.20;99.90
7163;DHT22;3623;47.098;15.446;2023-03-31T16:32:14;14.10;99.90
7163;DHT22;3623;47.098;15.446;2023-03-31T16:34:55;14.10;99.90
7163;DHT22;3623;47.098;15.446;2023-03-31T16:37:23;14.10;99.90
7163;DHT22;3623;47.098;15.446;2023-03-31T16:39:52;14.00;99.90
7163;DHT22;3623;47.098;15.446;2023-03-31T16:42:19;13.90;99.90